sensor_id;sensor_type;location;lat;lon;timestamp;pressure;altitude;pressure_sealevel;temperature;humidity
75775;BME280;64505;51.458;7.556;2023-12-20T00:00:17;99644.50;;;7.08;100.00
75775;BME280;64505;51.458;7.556;2023-12-20T00:02:18;99636.81;;;7.06;100.00
75775;BME280;64505;51.458;7.556;2023-12-20T00:04:20;99649.16;;;7.06;100.00
75775;BME280;64505;51.458;7.556;2023-12-20T00:06:21;99648.16;;;7.07;100.00
75775;BME280;64505;51.458;7.556;2023-12-20T00:08:23;99645.50;;;7.00;100.00
75775;BME280;64505;51.458;7.556;2023-12-20T00:10:24;99645.09;;;7.03;100.00
75775;BME280;64505;51.458;7.556;2023-12-20T00:12:26;99648.75;;;7.02;100.00
75775;BME280;64505;51.458;7.556;2023-12-20T00:14:28;99653.81;;;7.04;100.00
75775;BME280;64505;51.458;7.556;2023-12-20T00:16:29;99654.22;;;7.01;100.00
75775;BME280;64505;51.458;7.556;2023-12-20T00:18:33;99653.22;;;7.02;100.00
75775;BME280;64505;51.458;7.556;2023-12-20T00:20:34;99635.59;;;7.02;100.00
75775;BME280;64505;51.458;7.556;2023-12-20T00:22:36;99646.94;;;7.03;100.00
75775;BME280;64505;51.458;7.556;2023-12-20T00:24:37;99642.69;;;7.02;100.00
75775;BME280;64505;51.458;7.556;2023-12-20T00:26:38;99647.75;;;7.03;100.00
75775;BME280;64505;51.458;7.556;2023-12-20T00:28:40;99636.22;;;6.98;100.00
75775;BME280;64505;51.458;7.556;2023-12-20T00:30:41;99644.72;;;7.00;100.00
75775;BME280;64505;51.458;7.556;2023-12-20T00:32:43;99634.41;;;6.98;100.00
75775;BME280;64505;51.458;7.556;2023-12-20T00:34:47;99641.25;;;6.99;100.00
75775;BME280;64505;51.458;7.556;2023-12-20T00:36:49;99642.88;;;7.00;100.00
75775;BME280;64505;51.458;7.556;2023-12-20T00:38:50;99658.06;;;6.98;100.00
75775;BME280;64505;51.458;7.556;2023-12-20T00:40:53;99659.47;;;6.94;100.00
75775;BME280;64505;51.458;7.556;2023-12-20T00:42:54;99656.63;;;6.89;100.00
75775;BME280;64505;51.458;7.556;2023-12-20T00:44:56;99658.66;;;6.93;100.00
75775;BME280;64505;51.458;7.556;2023-12-20T00:46:57;99660.88;;;6.97;100.00
75775;BME280;64505;51.458;7.556;2023-12-20T00:48:59;99650.97;;;6.92;100.00
75775;BME280;64505;51.458;7.556;2023-12-20T00:51:00;99659.47;;;6.94;100.00
75775;BME280;64505;51.458;7.556;2023-12-20T00:53:02;99663.50;;;6.90;100.00
75775;BME280;64505;51.458;7.556;2023-12-20T00:55:04;99661.88;;;6.89;100.00
75775;BME280;64505;51.458;7.556;2023-12-20T00:57:06;99669.34;;;6.85;100.00
75775;BME280;64505;51.458;7.556;2023-12-20T00:59:07;99663.50;;;6.83;100.00
75775;BME280;64505;51.458;7.556;2023-12-20T01:01:09;99674.00;;;6.83;100.00
75775;BME280;64505;51.458;7.556;2023-12-20T01:03:10;99673.19;;;6.83;100.00
75775;BME280;64505;51.458;7.556;2023-12-20T01:05:12;99666.31;;;6.82;100.00
75775;BME280;64505;51.458;7.556;2023-12-20T01:07:13;99668.94;;;6.82;100.00
75775;BME280;64505;51.458;7.556;2023-12-20T01:09:15;99666.50;;;6.80;100.00
75775;BME280;64505;51.458;7.556;2023-12-20T01:11:16;99671.16;;;6.72;100.00
75775;BME280;64505;51.458;7.556;2023-12-20T01:13:18;99664.03;;;6.59;100.00
75775;BME280;64505;51.458;7.556;2023-12-20T01:15:20;99671.91;;;6.53;100.00
75775;BME280;64505;51.458;7.556;2023-12-20T01:17:21;99683.81;;;6.49;100.00
75775;BME280;64505;51.458;7.556;2023-12-20T01:19:24;99678.34;;;6.43;100.00
75775;BME280;64505;51.458;7.556;2023-12-20T01:21:26;99672.06;;;6.44;100.00
75775;BME280;64505;51.458;7.556;2023-12-20T01:23:27;99672.66;;;6.40;100.00
75775;BME280;64505;51.458;7.556;2023-12-20T01:25:29;99669.66;;;6.43;100.00
75775;BME280;64505;51.458;7.556;2023-12-20T01:27:30;99680.91;;;6.37;100.00
75775;BME280;64505;51.458;7.556;2023-12-20T01:29:32;99676.47;;;6.37;100.00
75775;BME280;64505;51.458;7.556;2023-12-20T01:31:33;99684.34;;;6.37;100.00
75775;BME280;64505;51.458;7.556;2023-12-20T01:33:35;99684.34;;;6.31;100.00
75775;BME280;64505;51.458;7.556;2023-12-20T01:35:36;99681.94;;;6.36;100.00
75775;BME280;64505;51.458;7.556;2023-12-20T01:37:38;99682.34;;;6.33;100.00
75775;BME280;64505;51.458;7.556;2023-12-20T01:39:40;99684.34;;;6.31;100.00
75775;BME280;64505;51.458;7.556;2023-12-20T01:41:41;99682.53;;;6.31;100.00
75775;BME280;64505;51.458;7.556;2023-12-20T01:43:43;99688.78;;;6.30;100.00
75775;BME280;64505;51.458;7.556;2023-12-20T01:45:52;99688.56;;;6.25;100.00
75775;BME280;64505;51.458;7.556;2023-12-20T01:47:55;99693.59;;;6.27;100.00
75775;BME280;64505;51.458;7.556;2023-12-20T01:49:57;99693.00;;;6.25;100.00
75775;BME280;64505;51.458;7.556;2023-12-20T01:51:59;99692.78;;;6.26;100.00
75775;BME280;64505;51.458;7.556;2023-12-20T01:54:00;99691.38;;;6.24;100.00
75775;BME280;64505;51.458;7.556;2023-12-20T01:56:02;99689.75;;;6.23;100.00
75775;BME280;64505;51.458;7.556;2023-12-20T01:58:04;99695.22;;;6.21;100.00
75775;BME280;64505;51.458;7.556;2023-12-20T02:00:06;99694.41;;;6.21;100.00
75775;BME280;64505;51.458;7.556;2023-12-20T02:02:09;99691.78;;;6.21;100.00
75775;BME280;64505;51.458;7.556;2023-12-20T02:04:13;99698.22;;;6.18;100.00
75775;BME280;64505;51.458;7.556;2023-12-20T02:06:16;99694.78;;;6.18;100.00
75775;BME280;64505;51.458;7.556;2023-12-20T02:08:18;99691.56;;;6.22;100.00
75775;BME280;64505;51.458;7.556;2023-12-20T02:10:19;99699.81;;;6.19;100.00
75775;BME280;64505;51.458;7.556;2023-12-20T02:12:21;99693.97;;;6.17;100.00
75775;BME280;64505;51.458;7.556;2023-12-20T02:14:23;99702.28;;;6.21;100.00
75775;BME280;64505;51.458;7.556;2023-12-20T02:16:24;99695.19;;;6.15;100.00
75775;BME280;64505;51.458;7.556;2023-12-20T02:18:26;99688.88;;;6.09;100.00
75775;BME280;64505;51.458;7.556;2023-12-20T02:20:28;99687.25;;;6.08;100.00
75775;BME280;64505;51.458;7.556;2023-12-20T02:22:29;99684.44;;;6.10;100.00
75775;BME280;64505;51.458;7.556;2023-12-20T02:24:31;99690.09;;;6.07;100.00
75775;BME280;64505;51.458;7.556;2023-12-20T02:26:33;99691.09;;;6.06;100.00
75775;BME280;64505;51.458;7.556;2023-12-20T02:28:35;99695.91;;;6.02;100.00
75775;BME280;64505;51.458;7.556;2023-12-20T02:30:37;99694.50;;;6.00;100.00
75775;BME280;64505;51.458;7.556;2023-12-20T02:32:38;99699.50;;;5.94;100.00
75775;BME280;64505;51.458;7.556;2023-12-20T02:34:40;99696.69;;;5.96;100.00
75775;BME280;64505;51.458;7.556;2023-12-20T02:36:42;99698.25;;;5.90;100.00
75775;BME280;64505;51.458;7.556;2023-12-20T02:38:43;99701.47;;;5.86;100.00
75775;BME280;64505;51.458;7.556;2023-12-20T02:40:45;99690.72;;;5.81;100.00
75775;BME280;64505;51.458;7.556;2023-12-20T02:42:50;99688.22;;;5.73;100.00
75775;BME280;64505;51.458;7.556;2023-12-20T02:44:51;99689.22;;;5.72;100.00
75775;BME280;64505;51.458;7.556;2023-12-20T02:46:53;99700.50;;;5.66;100.00
75775;BME280;64505;51.458;7.556;2023-12-20T02:48:54;99694.25;;;5.67;100.00
75775;BME280;64505;51.458;7.556;2023-12-20T02:50:56;99685.38;;;5.68;100.00
75775;BME280;64505;51.458;7.556;2023-12-20T02:52:57;99690.38;;;5.63;100.00
75775;BME280;64505;51.458;7.556;2023-12-20T02:54:59;99686.16;;;5.68;100.00
75775;BME280;64505;51.458;7.556;2023-12-20T02:57:00;99680.75;;;5.70;100.00
75775;BME280;64505;51.458;7.556;2023-12-20T02:59:02;99676.50;;;5.69;100.00
75775;BME280;64505;51.458;7.556;2023-12-20T03:01:06;99679.31;;;5.67;100.00
75775;BME280;64505;51.458;7.556;2023-12-20T03:03:08;99689.00;;;5.67;100.00
75775;BME280;64505;51.458;7.556;2023-12-20T03:05:09;99693.44;;;5.66;100.00
75775;BME280;64505;51.458;7.556;2023-12-20T03:07:11;99683.75;;;5.67;100.00
75775;BME280;64505;51.458;7.556;2023-12-20T03:09:13;99689.19;;;5.65;100.00
75775;BME280;64505;51.458;7.556;2023-12-20T03:11:15;99682.13;;;5.66;100.00
75775;BME280;64505;51.458;7.556;2023-12-20T03:13:16;99684.56;;;5.67;100.00
75775;BME280;64505;51.458;7.556;2023-12-20T03:15:18;99685.19;;;5.69;100.00
75775;BME280;64505;51.458;7.556;2023-12-20T03:17:19;99688.78;;;5.68;100.00
75775;BME280;64505;51.458;7.556;2023-12-20T03:19:21;99672.88;;;5.70;100.00
75775;BME280;64505;51.458;7.556;2023-12-20T03:21:23;99671.44;;;5.67;100.00
75775;BME280;64505;51.458;7.556;2023-12-20T03:23:25;99669.25;;;5.71;100.00
75775;BME280;64505;51.458;7.556;2023-12-20T03:25:27;99680.75;;;5.70;100.00
75775;BME280;64505;51.458;7.556;2023-12-20T03:27:29;99672.88;;;5.70;100.00
75775;BME280;64505;51.458;7.556;2023-12-20T03:29:30;99666.81;;;5.69;100.00
75775;BME280;64505;51.458;7.556;2023-12-20T03:31:32;99673.66;;;5.64;100.00
75775;BME280;64505;51.458;7.556;2023-12-20T03:33:33;99682.34;;;5.64;100.00
75775;BME280;64505;51.458;7.556;2023-12-20T03:35:35;99679.50;;;5.66;100.00
75775;BME280;64505;51.458;7.556;2023-12-20T03:37:36;99677.88;;;5.65;100.00
75775;BME280;64505;51.458;7.556;2023-12-20T03:39:38;99688.19;;;5.66;100.00
75775;BME280;64505;51.458;7.556;2023-12-20T03:41:39;99681.94;;;5.67;100.00
75775;BME280;64505;51.458;7.556;2023-12-20T03:43:41;99679.31;;;5.67;100.00
75775;BME280;64505;51.458;7.556;2023-12-20T03:45:43;99673.06;;;5.68;100.00
75775;BME280;64505;51.458;7.556;2023-12-20T03:47:44;99681.13;;;5.67;100.00
75775;BME280;64505;51.458;7.556;2023-12-20T03:49:46;99678.91;;;5.64;100.00
75775;BME280;64505;51.458;7.556;2023-12-20T03:51:48;99678.50;;;5.67;100.00
75775;BME280;64505;51.458;7.556;2023-12-20T03:53:49;99679.72;;;5.64;100.00
75775;BME280;64505;51.458;7.556;2023-12-20T03:55:51;99678.69;;;5.65;100.00
75775;BME280;64505;51.458;7.556;2023-12-20T03:57:52;99692.63;;;5.66;100.00
75775;BME280;64505;51.458;7.556;2023-12-20T03:59:54;99686.56;;;5.65;100.00
75775;BME280;64505;51.458;7.556;2023-12-20T04:01:56;99687.75;;;5.63;100.00
75775;BME280;64505;51.458;7.556;2023-12-20T04:03:57;99683.31;;;5.63;100.00
75775;BME280;64505;51.458;7.556;2023-12-20T04:05:59;99687.13;;;5.61;100.00
75775;BME280;64505;51.458;7.556;2023-12-20T04:08:01;99689.56;;;5.62;100.00
75775;BME280;64505;51.458;7.556;2023-12-20T04:10:04;99679.63;;;5.58;100.00
75775;BME280;64505;51.458;7.556;2023-12-20T04:12:05;99677.63;;;5.53;100.00
75775;BME280;64505;51.458;7.556;2023-12-20T04:14:07;99676.97;;;5.51;100.00
75775;BME280;64505;51.458;7.556;2023-12-20T04:16:09;99678.78;;;5.51;100.00
75775;BME280;64505;51.458;7.556;2023-12-20T04:18:10;99681.19;;;5.45;100.00
75775;BME280;64505;51.458;7.556;2023-12-20T04:20:12;99688.84;;;5.47;100.00
75775;BME280;64505;51.458;7.556;2023-12-20T04:22:14;99687.25;;;5.46;100.00
75775;BME280;64505;51.458;7.556;2023-12-20T04:24:15;99685.06;;;5.50;100.00
75775;BME280;64505;51.458;7.556;2023-12-20T04:26:17;99677.63;;;5.53;100.00
75775;BME280;64505;51.458;7.556;2023-12-20T04:28:18;99670.91;;;5.51;100.00
75775;BME280;64505;51.458;7.556;2023-12-20T04:30:20;99682.03;;;5.53;100.00
75775;BME280;64505;51.458;7.556;2023-12-20T04:32:21;99680.59;;;5.50;100.00
75775;BME280;64505;51.458;7.556;2023-12-20T04:34:23;99680.16;;;5.46;100.00
75775;BME280;64505;51.458;7.556;2023-12-20T04:36:24;99672.53;;;5.52;100.00
75775;BME280;64505;51.458;7.556;2023-12-20T04:38:28;99667.31;;;5.52;100.00
75775;BME280;64505;51.458;7.556;2023-12-20T04:40:29;99676.38;;;5.49;100.00
75775;BME280;64505;51.458;7.556;2023-12-20T04:42:31;99669.00;;;5.38;100.00
75775;BME280;64505;51.458;7.556;2023-12-20T04:44:32;99661.97;;;5.38;100.00
75775;BME280;64505;51.458;7.556;2023-12-20T04:46:34;99676.13;;;5.44;100.00
75775;BME280;64505;51.458;7.556;2023-12-20T04:48:35;99679.72;;;5.43;100.00
75775;BME280;64505;51.458;7.556;2023-12-20T04:50:37;99681.34;;;5.44;100.00
75775;BME280;64505;51.458;7.556;2023-12-20T04:52:38;99686.59;;;5.44;100.00
75775;BME280;64505;51.458;7.556;2023-12-20T04:54:40;99682.56;;;5.41;100.00
75775;BME280;64505;51.458;7.556;2023-12-20T04:56:45;99682.56;;;5.41;100.00
75775;BME280;64505;51.458;7.556;2023-12-20T04:58:46;99688.97;;;5.39;100.00
75775;BME280;64505;51.458;7.556;2023-12-20T05:00:48;99693.88;;;5.42;100.00
75775;BME280;64505;51.458;7.556;2023-12-20T05:02:50;99682.34;;;5.43;100.00
75775;BME280;64505;51.458;7.556;2023-12-20T05:04:51;99675.13;;;5.45;100.00
75775;BME280;64505;51.458;7.556;2023-12-20T05:06:56;99671.63;;;5.38;100.00
75775;BME280;64505;51.458;7.556;2023-12-20T05:08:58;99676.31;;;5.42;100.00
75775;BME280;64505;51.458;7.556;2023-12-20T05:10:59;99682.94;;;5.38;100.00
75775;BME280;64505;51.458;7.556;2023-12-20T05:13:01;99674.88;;;5.40;100.00
75775;BME280;64505;51.458;7.556;2023-12-20T05:15:03;99678.75;;;5.44;100.00
75775;BME280;64505;51.458;7.556;2023-12-20T05:17:04;99675.13;;;5.45;100.00
75775;BME280;64505;51.458;7.556;2023-12-20T05:19:06;99684.78;;;5.44;100.00
75775;BME280;64505;51.458;7.556;2023-12-20T05:21:08;99677.91;;;5.43;100.00
75775;BME280;64505;51.458;7.556;2023-12-20T05:23:10;99688.03;;;5.46;100.00
75775;BME280;64505;51.458;7.556;2023-12-20T05:25:12;99679.13;;;5.41;100.00
75775;BME280;64505;51.458;7.556;2023-12-20T05:27:14;99682.94;;;5.38;100.00
75775;BME280;64505;51.458;7.556;2023-12-20T05:29:15;99672.63;;;5.37;100.00
75775;BME280;64505;51.458;7.556;2023-12-20T05:31:18;99670.81;;;5.37;100.00
75775;BME280;64505;51.458;7.556;2023-12-20T05:33:19;99682.25;;;5.30;100.00
75775;BME280;64505;51.458;7.556;2023-12-20T05:35:21;99685.06;;;5.28;100.00
75775;BME280;64505;51.458;7.556;2023-12-20T05:37:24;99674.38;;;5.30;100.00
75775;BME280;64505;51.458;7.556;2023-12-20T05:39:26;99674.81;;;5.33;100.00
75775;BME280;64505;51.458;7.556;2023-12-20T05:41:27;99680.06;;;5.33;100.00
75775;BME280;64505;51.458;7.556;2023-12-20T05:43:29;99666.97;;;5.33;100.00
75775;BME280;64505;51.458;7.556;2023-12-20T05:45:30;99671.38;;;5.33;100.00
75775;BME280;64505;51.458;7.556;2023-12-20T05:47:32;99672.38;;;5.32;100.00
75775;BME280;64505;51.458;7.556;2023-12-20T05:49:33;99667.34;;;5.30;100.00
75775;BME280;64505;51.458;7.556;2023-12-20T05:51:35;99672.38;;;5.32;100.00
75775;BME280;64505;51.458;7.556;2023-12-20T05:53:36;99685.69;;;5.30;100.00
75775;BME280;64505;51.458;7.556;2023-12-20T05:55:38;99671.59;;;5.31;100.00
75775;BME280;64505;51.458;7.556;2023-12-20T05:57:39;99675.44;;;5.35;100.00
75775;BME280;64505;51.458;7.556;2023-12-20T05:59:41;99683.28;;;5.35;100.00
75775;BME280;64505;51.458;7.556;2023-12-20T06:01:42;99671.38;;;5.33;100.00
75775;BME280;64505;51.458;7.556;2023-12-20T06:03:44;99667.47;;;5.22;100.00
75775;BME280;64505;51.458;7.556;2023-12-20T06:05:47;99668.84;;;5.18;100.00
75775;BME280;64505;51.458;7.556;2023-12-20T06:07:48;99671.84;;;5.15;100.00
75775;BME280;64505;51.458;7.556;2023-12-20T06:09:52;99662.78;;;5.18;100.00
75775;BME280;64505;51.458;7.556;2023-12-20T06:11:53;99669.72;;;5.25;100.00
75775;BME280;64505;51.458;7.556;2023-12-20T06:13:55;99673.69;;;5.21;100.00
75775;BME280;64505;51.458;7.556;2023-12-20T06:15:57;99663.22;;;5.21;100.00
75775;BME280;64505;51.458;7.556;2023-12-20T06:17:58;99669.28;;;5.22;100.00
75775;BME280;64505;51.458;7.556;2023-12-20T06:20:00;99672.72;;;5.22;100.00
75775;BME280;64505;51.458;7.556;2023-12-20T06:22:02;99672.91;;;5.21;100.00
75775;BME280;64505;51.458;7.556;2023-12-20T06:24:04;99668.72;;;5.26;100.00
75775;BME280;64505;51.458;7.556;2023-12-20T06:26:05;99666.09;;;5.26;100.00
75775;BME280;64505;51.458;7.556;2023-12-20T06:28:07;99661.03;;;5.25;100.00
75775;BME280;64505;51.458;7.556;2023-12-20T06:30:11;99668.09;;;5.24;100.00
75775;BME280;64505;51.458;7.556;2023-12-20T06:32:13;99669.53;;;5.27;100.00
75775;BME280;64505;51.458;7.556;2023-12-20T06:34:14;99672.53;;;5.24;100.00
75775;BME280;64505;51.458;7.556;2023-12-20T06:36:16;99664.47;;;5.25;100.00
75775;BME280;64505;51.458;7.556;2023-12-20T06:38:18;99675.75;;;5.26;100.00
75775;BME280;64505;51.458;7.556;2023-12-20T06:40:19;99667.91;;;5.26;100.00
75775;BME280;64505;51.458;7.556;2023-12-20T06:42:21;99669.72;;;5.25;100.00
75775;BME280;64505;51.458;7.556;2023-12-20T06:44:23;99667.72;;;5.27;100.00
75775;BME280;64505;51.458;7.556;2023-12-20T06:46:24;99673.34;;;5.24;100.00
75775;BME280;64505;51.458;7.556;2023-12-20T06:48:26;99667.28;;;5.24;100.00
75775;BME280;64505;51.458;7.556;2023-12-20T06:50:28;99665.91;;;5.28;100.00
75775;BME280;64505;51.458;7.556;2023-12-20T06:52:29;99664.09;;;5.28;100.00
75775;BME280;64505;51.458;7.556;2023-12-20T06:54:31;99661.66;;;5.27;100.00
75775;BME280;64505;51.458;7.556;2023-12-20T06:56:32;99675.59;;;5.27;100.00
75775;BME280;64505;51.458;7.556;2023-12-20T06:58:34;99674.38;;;5.30;100.00
75775;BME280;64505;51.458;7.556;2023-12-20T07:00:35;99668.97;;;5.31;100.00
75775;BME280;64505;51.458;7.556;2023-12-20T07:02:37;99673.41;;;5.31;100.00
75775;BME280;64505;51.458;7.556;2023-12-20T07:04:42;99671.59;;;5.31;100.00
75775;BME280;64505;51.458;7.556;2023-12-20T07:06:43;99666.13;;;5.33;100.00
75775;BME280;64505;51.458;7.556;2023-12-20T07:08:45;99664.75;;;5.37;100.00
75775;BME280;64505;51.458;7.556;2023-12-20T07:10:47;99658.47;;;5.31;100.00
75775;BME280;64505;51.458;7.556;2023-12-20T07:12:48;99671.22;;;5.34;100.00
75775;BME280;64505;51.458;7.556;2023-12-20T07:14:50;99675.63;;;5.34;100.00
75775;BME280;64505;51.458;7.556;2023-12-20T07:16:52;99666.19;;;5.39;100.00
75775;BME280;64505;51.458;7.556;2023-12-20T07:18:53;99660.50;;;5.36;100.00
75775;BME280;64505;51.458;7.556;2023-12-20T07:20:55;99648.44;;;5.35;100.00
75775;BME280;64505;51.458;7.556;2023-12-20T07:22:56;99658.91;;;5.35;100.00
75775;BME280;64505;51.458;7.556;2023-12-20T07:24:58;99662.53;;;5.34;100.00
75775;BME280;64505;51.458;7.556;2023-12-20T07:27:00;99663.34;;;5.34;100.00
75775;BME280;64505;51.458;7.556;2023-12-20T07:29:02;99671.22;;;5.34;100.00
75775;BME280;64505;51.458;7.556;2023-12-20T07:31:05;99678.44;;;5.32;100.00
75775;BME280;64505;51.458;7.556;2023-12-20T07:33:07;99670.41;;;5.34;100.00
75775;BME280;64505;51.458;7.556;2023-12-20T07:35:10;99671.38;;;5.33;100.00
75775;BME280;64505;51.458;7.556;2023-12-20T07:37:12;99682.09;;;5.31;100.00
75775;BME280;64505;51.458;7.556;2023-12-20T07:39:14;99684.50;;;5.33;100.00
75775;BME280;64505;51.458;7.556;2023-12-20T07:41:16;99687.31;;;5.31;100.00
75775;BME280;64505;51.458;7.556;2023-12-20T07:43:18;99689.75;;;5.33;100.00
75775;BME280;64505;51.458;7.556;2023-12-20T07:45:19;99674.44;;;5.36;100.00
75775;BME280;64505;51.458;7.556;2023-12-20T07:47:21;99682.31;;;5.36;100.00
75775;BME280;64505;51.458;7.556;2023-12-20T07:49:23;99678.88;;;5.36;100.00
75775;BME280;64505;51.458;7.556;2023-12-20T07:51:25;99678.69;;;5.37;100.00
75775;BME280;64505;51.458;7.556;2023-12-20T07:53:26;99674.66;;;5.35;100.00
75775;BME280;64505;51.458;7.556;2023-12-20T07:55:28;99665.75;;;5.36;100.00
75775;BME280;64505;51.458;7.556;2023-12-20T07:57:31;99682.13;;;5.38;100.00
75775;BME280;64505;51.458;7.556;2023-12-20T07:59:33;99663.78;;;5.38;100.00
75775;BME280;64505;51.458;7.556;2023-12-20T08:01:34;99672.06;;;5.41;100.00
75775;BME280;64505;51.458;7.556;2023-12-20T08:03:36;99672.47;;;5.38;100.00
75775;BME280;64505;51.458;7.556;2023-12-20T08:05:38;99675.88;;;5.39;100.00
75775;BME280;64505;51.458;7.556;2023-12-20T08:07:41;99682.56;;;5.41;100.00
75775;BME280;64505;51.458;7.556;2023-12-20T08:09:43;99689.44;;;5.42;100.00
75775;BME280;64505;51.458;7.556;2023-12-20T08:11:48;99672.50;;;5.45;100.00
75775;BME280;64505;51.458;7.556;2023-12-20T08:13:50;99662.81;;;5.45;100.00
75775;BME280;64505;51.458;7.556;2023-12-20T08:15:53;99664.44;;;5.46;100.00
75775;BME280;64505;51.458;7.556;2023-12-20T08:17:54;99680.16;;;5.46;100.00
75775;BME280;64505;51.458;7.556;2023-12-20T08:19:56;99675.56;;;5.49;100.00
75775;BME280;64505;51.458;7.556;2023-12-20T08:21:57;99675.94;;;5.45;100.00
75775;BME280;64505;51.458;7.556;2023-12-20T08:23:59;99670.31;;;5.49;100.00
75775;BME280;64505;51.458;7.556;2023-12-20T08:26:06;99679.81;;;5.50;100.00
75775;BME280;64505;51.458;7.556;2023-12-20T08:28:07;99668.13;;;5.52;100.00
75775;BME280;64505;51.458;7.556;2023-12-20T08:30:09;99678.41;;;5.54;100.00
75775;BME280;64505;51.458;7.556;2023-12-20T08:32:11;99665.91;;;5.56;100.00
75775;BME280;64505;51.458;7.556;2023-12-20T08:34:12;99668.34;;;5.57;100.00
75775;BME280;64505;51.458;7.556;2023-12-20T08:36:16;99667.56;;;5.57;100.00
75775;BME280;64505;51.458;7.556;2023-12-20T08:38:19;99673.16;;;5.54;100.00
75775;BME280;64505;51.458;7.556;2023-12-20T08:40:20;99666.72;;;5.56;100.00
75775;BME280;64505;51.458;7.556;2023-12-20T08:42:22;99665.72;;;5.57;100.00
75775;BME280;64505;51.458;7.556;2023-12-20T08:44:25;99667.16;;;5.60;100.00
75775;BME280;64505;51.458;7.556;2023-12-20T08:46:27;99661.91;;;5.60;100.00
75775;BME280;64505;51.458;7.556;2023-12-20T08:48:29;99667.75;;;5.62;100.00
75775;BME280;64505;51.458;7.556;2023-12-20T08:50:30;99662.34;;;5.63;100.00
75775;BME280;64505;51.458;7.556;2023-12-20T08:52:32;99673.00;;;5.62;100.00
75775;BME280;64505;51.458;7.556;2023-12-20T08:54:34;99674.88;;;5.68;100.00
75775;BME280;64505;51.458;7.556;2023-12-20T08:56:35;99665.00;;;5.70;100.00
75775;BME280;64505;51.458;7.556;2023-12-20T08:58:37;99662.19;;;5.71;100.00
75775;BME280;64505;51.458;7.556;2023-12-20T09:00:38;99671.66;;;5.72;100.00
75775;BME280;64505;51.458;7.556;2023-12-20T09:02:41;99656.16;;;5.77;100.00
75775;BME280;64505;51.458;7.556;2023-12-20T09:04:43;99656.75;;;5.73;100.00
75775;BME280;64505;51.458;7.556;2023-12-20T09:06:45;99662.00;;;5.73;100.00
75775;BME280;64505;51.458;7.556;2023-12-20T09:08:46;99650.13;;;5.77;100.00
75775;BME280;64505;51.458;7.556;2023-12-20T09:10:48;99665.84;;;5.77;100.00
75775;BME280;64505;51.458;7.556;2023-12-20T09:12:51;99653.97;;;5.81;100.00
75775;BME280;64505;51.458;7.556;2023-12-20T09:14:53;99666.69;;;5.84;100.00
75775;BME280;64505;51.458;7.556;2023-12-20T09:16:54;99659.22;;;5.81;100.00
75775;BME280;64505;51.458;7.556;2023-12-20T09:18:57;99662.03;;;5.79;100.00
75775;BME280;64505;51.458;7.556;2023-12-20T09:20:59;99662.44;;;5.83;100.00
75775;BME280;64505;51.458;7.556;2023-12-20T09:23:00;99653.59;;;5.84;100.00
75775;BME280;64505;51.458;7.556;2023-12-20T09:25:02;99645.53;;;5.85;100.00
75775;BME280;64505;51.458;7.556;2023-12-20T09:27:04;99653.41;;;5.85;100.00
75775;BME280;64505;51.458;7.556;2023-12-20T09:29:06;99651.94;;;5.83;100.00
75775;BME280;64505;51.458;7.556;2023-12-20T09:31:08;99638.94;;;5.89;100.00
75775;BME280;64505;51.458;7.556;2023-12-20T09:33:10;99645.97;;;5.89;100.00
75775;BME280;64505;51.458;7.556;2023-12-20T09:35:12;99639.72;;;5.90;100.00
75775;BME280;64505;51.458;7.556;2023-12-20T09:37:13;99643.97;;;5.91;100.00
75775;BME280;64505;51.458;7.556;2023-12-20T09:39:16;99643.78;;;5.92;100.00
75775;BME280;64505;51.458;7.556;2023-12-20T09:41:25;99647.59;;;5.90;100.00
75775;BME280;64505;51.458;7.556;2023-12-20T09:43:29;99643.97;;;5.91;100.00
75775;BME280;64505;51.458;7.556;2023-12-20T09:45:31;99639.94;;;5.95;100.00
75775;BME280;64505;51.458;7.556;2023-12-20T09:47:34;99641.97;;;5.93;100.00
75775;BME280;64505;51.458;7.556;2023-12-20T09:49:36;99639.94;;;5.95;100.00
75775;BME280;64505;51.458;7.556;2023-12-20T09:51:39;99632.88;;;5.96;100.00
75775;BME280;64505;51.458;7.556;2023-12-20T09:53:42;99643.56;;;5.94;100.00
75775;BME280;64505;51.458;7.556;2023-12-20T09:55:44;99634.69;;;5.95;100.00
75775;BME280;64505;51.458;7.556;2023-12-20T09:57:46;99633.47;;;5.91;100.00
75775;BME280;64505;51.458;7.556;2023-12-20T09:59:50;99630.44;;;5.94;100.00
75775;BME280;64505;51.458;7.556;2023-12-20T10:01:55;99634.94;;;6.00;100.00
75775;BME280;64505;51.458;7.556;2023-12-20T10:04:00;99636.34;;;6.03;100.00
75775;BME280;64505;51.458;7.556;2023-12-20T10:06:02;99633.72;;;6.03;100.00
75775;BME280;64505;51.458;7.556;2023-12-20T10:08:04;99640.41;;;6.05;100.00
75775;BME280;64505;51.458;7.556;2023-12-20T10:10:07;99634.16;;;6.06;100.00
75775;BME280;64505;51.458;7.556;2023-12-20T10:12:10;99635.56;;;6.09;100.00
75775;BME280;64505;51.458;7.556;2023-12-20T10:14:11;99633.75;;;6.09;100.00
75775;BME280;64505;51.458;7.556;2023-12-20T10:16:13;99627.94;;;6.14;100.00
75775;BME280;64505;51.458;7.556;2023-12-20T10:18:16;99610.16;;;6.16;100.00
75775;BME280;64505;51.458;7.556;2023-12-20T10:20:17;99619.06;;;6.15;100.00
75775;BME280;64505;51.458;7.556;2023-12-20T10:22:19;99626.94;;;6.15;100.00
75775;BME280;64505;51.458;7.556;2023-12-20T10:24:20;99630.56;;;6.20;100.00
75775;BME280;64505;51.458;7.556;2023-12-20T10:26:25;99616.44;;;6.15;100.00
75775;BME280;64505;51.458;7.556;2023-12-20T10:28:33;99614.97;;;6.12;100.00
75775;BME280;64505;51.458;7.556;2023-12-20T10:30:36;99625.09;;;6.15;100.00
75775;BME280;64505;51.458;7.556;2023-12-20T10:32:38;99609.34;;;6.15;100.00
75775;BME280;64505;51.458;7.556;2023-12-20T10:34:39;99604.72;;;6.17;100.00
75775;BME280;64505;51.458;7.556;2023-12-20T10:36:41;99609.53;;;6.14;100.00
75775;BME280;64505;51.458;7.556;2023-12-20T10:38:42;99607.34;;;6.17;100.00
75775;BME280;64505;51.458;7.556;2023-12-20T10:40:45;99601.66;;;6.14;100.00
75775;BME280;64505;51.458;7.556;2023-12-20T10:42:48;99604.28;;;6.14;100.00
75775;BME280;64505;51.458;7.556;2023-12-20T10:44:52;99607.75;;;6.14;100.00